createdAt,value
2019-04-03T00:00:13.808Z,100562.26
2019-04-03T00:02:42.332Z,100579.58
2019-04-03T00:05:10.982Z,100566.64
2019-04-03T00:07:39.524Z,100590.45
2019-04-03T00:10:08.404Z,100606.91
2019-04-03T00:12:38.816Z,100606.48
2019-04-03T00:15:07.698Z,100615.59
2019-04-03T00:17:36.192Z,100611.27
2019-04-03T00:20:06.904Z,100598.31
2019-04-03T00:22:36.411Z,100584.50
2019-04-03T00:25:07.320Z,100583.23
2019-04-03T00:27:35.805Z,100587.98
2019-04-03T00:30:06.106Z,100574.17
2019-04-03T00:32:34.594Z,100571.11
2019-04-03T00:35:03.679Z,100572.02
2019-04-03T00:37:32.189Z,100565.52
2019-04-03T00:40:00.692Z,100556.44
2019-04-03T00:42:29.175Z,100549.95
2019-04-03T00:44:57.642Z,100543.89
2019-04-03T00:47:26.139Z,100541.72
2019-04-03T00:49:56.239Z,100546.94
2019-04-03T00:52:27.207Z,100549.53
2019-04-03T00:54:56.506Z,100546.48
2019-04-03T00:57:26.348Z,100546.03
2019-04-03T00:59:56.486Z,100546.00
2019-04-03T01:02:27.835Z,100543.81
2019-04-03T01:04:58.038Z,100538.16
2019-04-03T01:07:25.753Z,100533.79
2019-04-03T01:09:54.272Z,100534.20
2019-04-03T01:12:22.736Z,100532.45
2019-04-03T01:14:51.330Z,100525.03
2019-04-03T01:17:19.901Z,100531.06
2019-04-03T01:19:48.375Z,100528.47
2019-04-03T01:22:16.829Z,100517.61
2019-04-03T01:24:45.350Z,100528.39
2019-04-03T01:27:13.871Z,100530.55
2019-04-03T01:29:43.017Z,100534.42
2019-04-03T01:32:11.831Z,100539.58
2019-04-03T01:34:40.431Z,100541.25
2019-04-03T01:37:08.964Z,100531.68
2019-04-03T01:39:37.405Z,100522.58
2019-04-03T01:42:05.901Z,100518.20
2019-04-03T01:44:34.330Z,100516.41
2019-04-03T01:47:02.835Z,100520.23
2019-04-03T01:49:31.283Z,100521.50
2019-04-03T01:52:00.827Z,100527.09
2019-04-03T01:54:30.056Z,100520.11
2019-04-03T01:56:58.512Z,100520.95
2019-04-03T01:59:26.987Z,100519.19
2019-04-03T02:01:55.503Z,100521.78
2019-04-03T02:04:23.974Z,100516.13
2019-04-03T02:06:52.594Z,100521.31
2019-04-03T02:09:21.097Z,100517.42
2019-04-03T02:11:49.840Z,100517.42
2019-04-03T02:14:21.177Z,100516.53
2019-04-03T02:16:48.679Z,100515.23
2019-04-03T02:19:17.141Z,100507.45
2019-04-03T02:21:45.607Z,100508.72
2019-04-03T02:24:14.105Z,100513.91
2019-04-03T02:26:42.663Z,100512.61
2019-04-03T02:29:11.473Z,100509.13
2019-04-03T02:31:39.996Z,100507.80
2019-04-03T02:34:08.457Z,100508.63
2019-04-03T02:36:37.050Z,100512.52
2019-04-03T02:39:06.379Z,100503.84
2019-04-03T02:41:36.500Z,100501.69
2019-04-03T02:44:05.098Z,100492.19
2019-04-03T02:46:33.596Z,100491.75
2019-04-03T02:49:02.049Z,100486.14
2019-04-03T02:51:30.500Z,100499.95
2019-04-03T02:54:01.507Z,100497.80
2019-04-03T02:56:29.199Z,100487.40
2019-04-03T02:58:57.668Z,100480.48
2019-04-03T03:01:26.180Z,100476.60
2019-04-03T03:03:54.650Z,100473.11
2019-04-03T03:06:23.112Z,100474.37
2019-04-03T03:08:52.195Z,100481.26
2019-04-03T03:11:23.225Z,100474.68
2019-04-03T03:13:51.495Z,100472.48
2019-04-03T03:16:20.009Z,100467.27
2019-04-03T03:18:48.809Z,100463.32
2019-04-03T03:21:17.342Z,100462.45
2019-04-03T03:23:45.943Z,100464.58
2019-04-03T03:26:14.448Z,100466.27
2019-04-03T03:28:45.559Z,100452.28
2019-04-03T03:31:13.193Z,100470.05
2019-04-03T03:33:42.556Z,100465.27
2019-04-03T03:36:11.613Z,100456.56
2019-04-03T03:38:41.829Z,100446.64
2019-04-03T03:41:10.286Z,100454.37
2019-04-03T03:43:39.085Z,100459.12
2019-04-03T03:46:07.792Z,100448.70
2019-04-03T03:48:36.727Z,100446.97
2019-04-03T03:51:05.410Z,100429.67
2019-04-03T03:53:33.918Z,100433.09
2019-04-03T03:56:02.607Z,100431.33
2019-04-03T03:58:31.454Z,100433.48
2019-04-03T04:01:01.001Z,100435.81
2019-04-03T04:03:30.391Z,100442.33
2019-04-03T04:05:59.049Z,100439.70
2019-04-03T04:08:28.847Z,100445.70
2019-04-03T04:10:59.571Z,100447.40
2019-04-03T04:13:27.692Z,100448.70
2019-04-03T04:15:56.628Z,100449.95
2019-04-03T04:18:25.195Z,100436.58
2019-04-03T04:20:53.949Z,100449.91
2019-04-03T04:23:24.756Z,100463.33
2019-04-03T04:25:53.784Z,100467.64
2019-04-03T04:28:25.117Z,100467.22
2019-04-03T04:30:54.083Z,100456.06
2019-04-03T04:33:22.528Z,100464.70
2019-04-03T04:35:52.197Z,100481.17
2019-04-03T04:38:21.277Z,100468.69
2019-04-03T04:40:49.739Z,100484.66
2019-04-03T04:43:18.180Z,100483.00
2019-04-03T04:45:46.667Z,100483.00
2019-04-03T04:48:16.743Z,100487.75
2019-04-03T04:50:45.340Z,100493.83
2019-04-03T04:53:13.829Z,100488.66
2019-04-03T04:55:42.282Z,100495.59
2019-04-03T04:58:11.727Z,100480.92
2019-04-03T05:00:40.728Z,100474.05
2019-04-03T05:03:09.192Z,100476.64
2019-04-03T05:05:37.645Z,100487.46
2019-04-03T05:08:06.153Z,100472.32
2019-04-03T05:10:36.882Z,100479.69
2019-04-03T05:13:05.272Z,100470.23
2019-04-03T05:15:33.783Z,100473.68
2019-04-03T05:18:02.331Z,100477.56
2019-04-03T05:20:30.789Z,100471.95
2019-04-03T05:23:01.135Z,100464.22
2019-04-03T05:25:30.378Z,100474.14
2019-04-03T05:27:59.115Z,100472.85
2019-04-03T05:30:32.505Z,100470.27
2019-04-03T05:33:01.042Z,100468.14
2019-04-03T05:35:29.573Z,100465.15
2019-04-03T05:37:58.087Z,100465.18
2019-04-03T05:40:26.963Z,100482.48
2019-04-03T05:42:55.542Z,100482.98
2019-04-03T05:45:24.722Z,100481.75
2019-04-03T05:47:53.249Z,100477.06
2019-04-03T05:50:21.734Z,100474.08
2019-04-03T05:52:50.246Z,100489.28
2019-04-03T05:55:18.847Z,100488.02
2019-04-03T05:57:47.371Z,100494.13
2019-04-03T06:00:16.205Z,100504.56
2019-04-03T06:02:44.691Z,100511.53
2019-04-03T06:05:13.364Z,100508.14
2019-04-03T06:07:42.037Z,100507.77
2019-04-03T06:10:11.171Z,100514.30
2019-04-03T06:12:39.643Z,100508.34
2019-04-03T06:15:09.864Z,100499.77
2019-04-03T06:17:38.425Z,100492.91
2019-04-03T06:20:10.319Z,100487.78
2019-04-03T06:22:37.760Z,100478.75
2019-04-03T06:25:12.651Z,100482.25
2019-04-03T06:27:40.710Z,100472.38
2019-04-03T06:30:09.632Z,100472.83
2019-04-03T06:32:39.091Z,100477.68
2019-04-03T06:35:07.558Z,100490.70
2019-04-03T06:37:36.057Z,100497.22
2019-04-03T06:40:07.855Z,100490.72
2019-04-03T06:42:36.500Z,100495.52
2019-04-03T06:45:06.356Z,100491.63
2019-04-03T06:47:34.811Z,100501.63
2019-04-03T06:50:03.751Z,100511.59
2019-04-03T06:52:32.271Z,100499.06
2019-04-03T06:55:01.182Z,100506.03
2019-04-03T06:57:30.939Z,100503.91
2019-04-03T06:59:59.459Z,100509.16
2019-04-03T07:02:31.402Z,100507.03
2019-04-03T07:04:58.108Z,100514.45
2019-04-03T07:07:33.935Z,100516.23
2019-04-03T07:09:57.246Z,100514.12
2019-04-03T07:12:25.771Z,100518.49
2019-04-03T07:14:54.363Z,100507.73
2019-04-03T07:17:23.003Z,100510.42
2019-04-03T07:19:51.421Z,100505.68
2019-04-03T07:22:19.924Z,100504.02
2019-04-03T07:24:48.386Z,100511.87
2019-04-03T07:27:17.154Z,100499.34
2019-04-03T07:29:46.851Z,100504.13
2019-04-03T07:32:15.877Z,100509.81
2019-04-03T07:34:44.455Z,100510.27
2019-04-03T07:37:15.342Z,100512.00
2019-04-03T07:39:43.145Z,100516.81
2019-04-03T07:42:11.730Z,100514.20
2019-04-03T07:44:40.567Z,100512.48
2019-04-03T07:47:09.384Z,100512.06
2019-04-03T07:49:40.052Z,100512.94
2019-04-03T07:52:08.470Z,100511.25
2019-04-03T07:54:36.941Z,100517.31
2019-04-03T07:57:05.404Z,100511.64
2019-04-03T07:59:34.765Z,100515.13
2019-04-03T08:02:03.542Z,100516.00
2019-04-03T08:04:32.097Z,100517.28
2019-04-03T08:07:00.596Z,100519.45
2019-04-03T08:09:29.072Z,100517.70
2019-04-03T08:11:57.759Z,100517.25
2019-04-03T08:14:26.208Z,100511.58
2019-04-03T08:16:56.322Z,100504.63
2019-04-03T08:19:24.856Z,100504.16
2019-04-03T08:21:53.356Z,100497.61
2019-04-03T08:24:21.826Z,100494.50
2019-04-03T08:26:51.660Z,100493.16
2019-04-03T08:29:22.063Z,100489.21
2019-04-03T08:31:50.845Z,100489.61
2019-04-03T08:34:19.324Z,100490.91
2019-04-03T08:36:47.812Z,100490.42
2019-04-03T08:39:16.970Z,100487.76
2019-04-03T08:41:45.968Z,100484.23
2019-04-03T08:44:14.473Z,100455.13
2019-04-03T08:46:43.855Z,100478.45
2019-04-03T08:49:12.492Z,100474.92
2019-04-03T08:51:41.066Z,100468.77
2019-04-03T08:54:11.213Z,100470.46
2019-04-03T08:56:39.903Z,100470.84
2019-04-03T08:59:08.384Z,100475.17
2019-04-03T09:01:37.320Z,100473.38
2019-04-03T09:04:05.887Z,100475.03
2019-04-03T09:06:34.380Z,100478.91
2019-04-03T09:09:03.348Z,100473.64
2019-04-03T09:11:31.802Z,100470.58
2019-04-03T09:14:00.598Z,100472.71
2019-04-03T09:16:31.292Z,100478.39
2019-04-03T09:18:59.220Z,100478.39
2019-04-03T09:21:27.886Z,100475.73
2019-04-03T09:23:57.898Z,100473.56
2019-04-03T09:26:26.639Z,100463.97
2019-04-03T09:28:55.122Z,100460.94
2019-04-03T09:31:24.059Z,100456.16
2019-04-03T09:33:52.664Z,100452.97
2019-04-03T09:36:21.517Z,100457.06
2019-04-03T09:38:50.414Z,100448.52
2019-04-03T09:41:20.111Z,100438.25
2019-04-03T09:43:48.990Z,100445.06
2019-04-03T09:46:17.764Z,100441.48
2019-04-03T09:48:46.301Z,100432.14
2019-04-03T09:51:18.300Z,100432.14
2019-04-03T09:53:46.670Z,100431.80
2019-04-03T09:56:15.481Z,100422.30
2019-04-03T09:58:44.063Z,100422.30
2019-04-03T10:01:15.990Z,100418.33
2019-04-03T10:03:42.718Z,100420.59
2019-04-03T10:06:11.226Z,100407.61
2019-04-03T10:08:40.396Z,100407.63
2019-04-03T10:11:09.626Z,100402.80
2019-04-03T10:13:38.369Z,100407.96
2019-04-03T10:16:07.139Z,100401.34
2019-04-03T10:18:36.241Z,100396.51
2019-04-03T10:21:04.700Z,100402.50
2019-04-03T10:23:33.240Z,100394.56
2019-04-03T10:26:01.695Z,100387.88
2019-04-03T10:28:30.197Z,100383.35
2019-04-03T10:30:58.650Z,100381.91
2019-04-03T10:33:28.980Z,100377.83
2019-04-03T10:35:58.020Z,100370.27
2019-04-03T10:38:26.548Z,100362.65
2019-04-03T10:40:56.227Z,100358.98
2019-04-03T10:43:25.232Z,100358.28
2019-04-03T10:45:54.030Z,100355.48
2019-04-03T10:48:22.567Z,100359.19
2019-04-03T10:50:51.083Z,100361.55
2019-04-03T10:53:19.992Z,100356.56
2019-04-03T10:55:49.289Z,100359.80
2019-04-03T10:58:17.857Z,100356.88
2019-04-03T11:00:46.328Z,100351.86
2019-04-03T11:03:14.782Z,100344.16
2019-04-03T11:05:43.288Z,100348.28
2019-04-03T11:08:11.776Z,100343.70
2019-04-03T11:10:40.610Z,100344.88
2019-04-03T11:13:09.111Z,100335.06
2019-04-03T11:15:37.602Z,100333.61
2019-04-03T11:18:06.061Z,100329.91
2019-04-03T11:20:36.720Z,100328.83
2019-04-03T11:23:07.624Z,100333.08
2019-04-03T11:25:35.133Z,100324.70
2019-04-03T11:28:05.516Z,100322.51
2019-04-03T11:30:33.959Z,100317.55
2019-04-03T11:33:02.690Z,100310.50
2019-04-03T11:35:31.335Z,100315.64
2019-04-03T11:38:11.199Z,100314.66
2019-04-03T11:40:30.070Z,100310.63
2019-04-03T11:42:58.825Z,100311.09
2019-04-03T11:45:27.289Z,100308.36
2019-04-03T11:47:55.754Z,100314.87
2019-04-03T11:50:25.441Z,100306.93
2019-04-03T11:52:54.483Z,100302.09
2019-04-03T11:55:22.953Z,100299.80
2019-04-03T11:57:51.472Z,100302.70
2019-04-03T12:00:27.696Z,100307.45
2019-04-03T12:02:56.293Z,100307.75
2019-04-03T12:05:25.135Z,100306.77
2019-04-03T12:07:55.546Z,100305.32
2019-04-03T12:10:25.911Z,100307.83
2019-04-03T12:12:54.045Z,100304.64
2019-04-03T12:15:22.569Z,100302.80
2019-04-03T12:17:52.148Z,100294.02
2019-04-03T12:20:20.620Z,100291.98
2019-04-03T12:22:49.090Z,100292.56
2019-04-03T12:25:17.590Z,100287.98
2019-04-03T12:27:46.708Z,100284.53
2019-04-03T12:30:16.563Z,100282.39
2019-04-03T12:32:48.280Z,100278.45
2019-04-03T12:35:15.294Z,100283.70
2019-04-03T12:37:44.758Z,100275.42
2019-04-03T12:40:13.665Z,100272.33
2019-04-03T12:42:42.238Z,100273.12
2019-04-03T12:45:10.776Z,100268.16
2019-04-03T12:47:39.451Z,100268.00
2019-04-03T12:50:08.552Z,100260.83
2019-04-03T12:52:37.160Z,100264.28
2019-04-03T12:55:07.474Z,100261.55
2019-04-03T12:57:38.910Z,100249.16
2019-04-03T13:00:12.462Z,100252.57
2019-04-03T13:02:41.262Z,100238.95
2019-04-03T13:05:09.934Z,100245.82
2019-04-03T13:07:38.449Z,100244.37
2019-04-03T13:10:08.757Z,100240.67
2019-04-03T13:12:37.396Z,100242.24
2019-04-03T13:15:09.305Z,100242.60
2019-04-03T13:17:38.271Z,100244.63
2019-04-03T13:20:08.078Z,100240.00
2019-04-03T13:22:36.899Z,100243.34
2019-04-03T13:25:09.770Z,100237.97
2019-04-03T13:27:38.231Z,100234.84
2019-04-03T13:30:11.069Z,100237.41
2019-04-03T13:32:39.263Z,100223.27
2019-04-03T13:35:08.276Z,100220.49
2019-04-03T13:37:36.817Z,100218.17
2019-04-03T13:40:07.503Z,100222.87
2019-04-03T13:42:36.615Z,100215.85
2019-04-03T13:45:08.609Z,100213.50
2019-04-03T13:47:39.738Z,100206.45
2019-04-03T13:50:10.583Z,100211.72
2019-04-03T13:52:43.170Z,100204.74
2019-04-03T13:55:09.766Z,100206.63
2019-04-03T13:57:38.628Z,100198.88
2019-04-03T14:00:18.313Z,100205.62
2019-04-03T14:02:37.694Z,100206.34
2019-04-03T14:05:07.702Z,100204.70
2019-04-03T14:07:36.346Z,100197.77
2019-04-03T14:10:07.756Z,100201.33
2019-04-03T14:12:38.638Z,100191.69
2019-04-03T14:15:07.789Z,100197.17
2019-04-03T14:17:37.380Z,100193.30
2019-04-03T14:20:07.986Z,100193.41
2019-04-03T14:22:36.454Z,100194.33
2019-04-03T14:25:18.092Z,100196.99
2019-04-03T14:27:37.806Z,100197.92
2019-04-03T14:30:11.191Z,100197.49
2019-04-03T14:32:40.086Z,100195.82
2019-04-03T14:35:33.694Z,100204.28
2019-04-03T14:37:39.693Z,100195.18
2019-04-03T14:40:11.004Z,100196.14
2019-04-03T14:42:39.167Z,100198.31
2019-04-03T14:45:08.184Z,100168.68
2019-04-03T14:47:36.666Z,100198.95
2019-04-03T14:50:07.176Z,100199.87
2019-04-03T14:52:35.730Z,100194.71
2019-04-03T14:55:18.243Z,100194.36
2019-04-03T14:57:38.270Z,100199.62
2019-04-03T15:00:23.023Z,100194.92
2019-04-03T15:02:40.400Z,100191.93
2019-04-03T15:05:09.804Z,100194.09
2019-04-03T15:07:38.615Z,100191.50
2019-04-03T15:10:07.482Z,100188.41
2019-04-03T15:12:38.663Z,100180.59
2019-04-03T15:15:06.942Z,100185.88
2019-04-03T15:17:37.249Z,100186.34
2019-04-03T15:20:09.499Z,100184.17
2019-04-03T15:22:38.257Z,100188.58
2019-04-03T15:25:07.581Z,100184.20
2019-04-03T15:27:36.120Z,100180.69
2019-04-03T15:30:08.683Z,100182.00
2019-04-03T15:32:36.929Z,100173.65
2019-04-03T15:35:06.775Z,100167.96
2019-04-03T15:37:35.243Z,100173.23
2019-04-03T15:40:04.784Z,100171.55
2019-04-03T15:42:33.530Z,100143.20
2019-04-03T15:45:02.475Z,100167.39
2019-04-03T15:47:36.580Z,100162.69
2019-04-03T15:50:01.812Z,100164.14
2019-04-03T15:52:30.442Z,100164.27
2019-04-03T15:54:58.935Z,100166.25
2019-04-03T15:57:27.650Z,100164.60
2019-04-03T15:59:56.456Z,100171.28
2019-04-03T16:02:27.762Z,100166.61
2019-04-03T16:04:55.280Z,100165.39
2019-04-03T16:07:25.324Z,100160.27
2019-04-03T16:09:53.818Z,100158.13
2019-04-03T16:12:22.343Z,100156.84
2019-04-03T16:14:51.833Z,100156.12
2019-04-03T16:17:20.385Z,100150.95
2019-04-03T16:19:48.864Z,100148.36
2019-04-03T16:22:17.315Z,100149.73
2019-04-03T16:24:45.880Z,100146.69
2019-04-03T16:27:14.350Z,100142.37
2019-04-03T16:29:42.835Z,100141.52
2019-04-03T16:32:11.567Z,100136.73
2019-04-03T16:34:41.841Z,100140.70
2019-04-03T16:37:10.614Z,100140.30
2019-04-03T16:39:39.210Z,100134.66
2019-04-03T16:42:07.699Z,100131.11
2019-04-03T16:44:36.159Z,100118.82
2019-04-03T16:47:05.544Z,100120.04
2019-04-03T16:49:34.023Z,100123.45
2019-04-03T16:52:04.876Z,100118.10
2019-04-03T16:54:33.598Z,100121.09
2019-04-03T16:57:03.738Z,100120.05
2019-04-03T16:59:35.372Z,100118.07
2019-04-03T17:02:02.585Z,100118.13
2019-04-03T17:04:31.188Z,100113.19
2019-04-03T17:06:59.701Z,100108.92
2019-04-03T17:09:28.203Z,100108.80
2019-04-03T17:11:56.676Z,100106.97
2019-04-03T17:14:25.726Z,100099.94
2019-04-03T17:16:55.511Z,100102.92
2019-04-03T17:19:23.961Z,100107.30
2019-04-03T17:21:52.703Z,100095.52
2019-04-03T17:24:21.197Z,100101.09
2019-04-03T17:26:55.753Z,100095.78
2019-04-03T17:29:20.499Z,100093.89
2019-04-03T17:31:49.379Z,100096.44
2019-04-03T17:34:18.388Z,100099.39
2019-04-03T17:36:46.977Z,100097.09
2019-04-03T17:39:16.270Z,100098.23
2019-04-03T17:41:44.737Z,100106.41
2019-04-03T17:44:13.946Z,100107.47
2019-04-03T17:46:43.042Z,100105.94
2019-04-03T17:49:11.905Z,100107.06
2019-04-03T17:51:40.387Z,100099.86
2019-04-03T17:54:08.871Z,100108.82
2019-04-03T17:56:46.434Z,100108.55
2019-04-03T17:59:14.959Z,100116.11
2019-04-03T18:01:43.423Z,100115.86
2019-04-03T18:04:11.891Z,100117.72
2019-04-03T18:06:40.384Z,100120.49
2019-04-03T18:09:09.424Z,100123.66
2019-04-03T18:11:38.063Z,100121.63
2019-04-03T18:14:06.614Z,100121.73
2019-04-03T18:16:35.077Z,100121.88
2019-04-03T18:19:04.856Z,100129.91
2019-04-03T18:21:33.757Z,100124.82
2019-04-03T18:24:02.235Z,100123.64
2019-04-03T18:26:31.186Z,100126.78
2019-04-03T18:28:59.774Z,100125.16
2019-04-03T18:31:28.247Z,100122.19
2019-04-03T18:33:56.713Z,100125.33
2019-04-03T18:36:27.680Z,100119.35
2019-04-03T18:38:55.462Z,100120.33
2019-04-03T18:41:23.926Z,100122.61
2019-04-03T18:43:54.205Z,100119.22
2019-04-03T18:46:32.055Z,100125.86
2019-04-03T18:48:57.074Z,100120.30
2019-04-03T18:51:23.641Z,100115.23
2019-04-03T18:53:52.097Z,100113.98
2019-04-03T18:56:20.558Z,100112.34
2019-04-03T18:58:49.054Z,100111.58
2019-04-03T19:01:17.521Z,100112.54
2019-04-03T19:03:45.980Z,100102.59
2019-04-03T19:06:14.485Z,100107.47
2019-04-03T19:08:42.953Z,100109.23
2019-04-03T19:11:11.415Z,100107.12
2019-04-03T19:13:39.921Z,100106.75
2019-04-03T19:16:09.066Z,100108.97
2019-04-03T19:18:37.649Z,100101.59
2019-04-03T19:21:06.211Z,100101.23
2019-04-03T19:23:34.674Z,100103.03
2019-04-03T19:26:03.145Z,100097.86
2019-04-03T19:28:34.290Z,100103.94
2019-04-03T19:31:01.824Z,100103.56
2019-04-03T19:33:30.295Z,100108.37
2019-04-03T19:35:59.358Z,100104.06
2019-04-03T19:38:27.858Z,100104.09
2019-04-03T19:40:56.343Z,100102.39
2019-04-03T19:43:24.844Z,100095.91
2019-04-03T19:45:53.332Z,100100.27
2019-04-03T19:48:21.774Z,100098.19
2019-04-03T19:50:50.277Z,100101.28
2019-04-03T19:53:18.998Z,100100.05
2019-04-03T19:55:47.456Z,100100.98
2019-04-03T19:58:15.984Z,100097.55
2019-04-03T20:00:44.455Z,100099.33
2019-04-03T20:03:14.068Z,100095.91
2019-04-03T20:05:44.030Z,100096.80
2019-04-03T20:08:12.738Z,100092.47
2019-04-03T20:10:41.209Z,100088.63
2019-04-03T20:13:09.738Z,100085.19
2019-04-03T20:15:38.195Z,100082.62
2019-04-03T20:18:06.651Z,100080.05
2019-04-03T20:20:35.132Z,100075.72
2019-04-03T20:23:03.600Z,100072.28
2019-04-03T20:25:32.064Z,100065.36
2019-04-03T20:28:00.654Z,100073.16
2019-04-03T20:30:29.133Z,100071.00
2019-04-03T20:32:57.590Z,100064.08
2019-04-03T20:35:26.083Z,100064.97
2019-04-03T20:37:56.803Z,100058.04
2019-04-03T20:40:24.735Z,100057.63
2019-04-03T20:42:53.244Z,100054.16
2019-04-03T20:45:21.717Z,100055.91
2019-04-03T20:47:50.266Z,100053.33
2019-04-03T20:50:18.970Z,100053.77
2019-04-03T20:52:47.422Z,100051.19
2019-04-03T20:55:16.832Z,100020.52
2019-04-03T20:57:54.921Z,100052.52
2019-04-03T21:00:18.578Z,100052.09
2019-04-03T21:02:47.314Z,100052.12
2019-04-03T21:05:17.847Z,100051.70
2019-04-03T21:07:46.057Z,100039.12
2019-04-03T21:10:14.542Z,100049.09
2019-04-03T21:12:43.039Z,100045.22
2019-04-03T21:15:14.188Z,100046.52
2019-04-03T21:17:41.760Z,100046.08
2019-04-03T21:20:10.475Z,100047.81
2019-04-03T21:22:38.932Z,100041.75
2019-04-03T21:25:07.466Z,100044.80
2019-04-03T21:27:35.993Z,100050.86
2019-04-03T21:30:07.563Z,100046.55
2019-04-03T21:32:36.025Z,100040.89
2019-04-03T21:35:04.948Z,100043.50
2019-04-03T21:37:33.402Z,100043.94
2019-04-03T21:40:04.703Z,100043.94
2019-04-03T21:42:32.095Z,100045.69
2019-04-03T21:45:02.571Z,100040.89
2019-04-03T21:47:30.748Z,100036.57
2019-04-03T21:49:59.238Z,100043.97
2019-04-03T21:52:27.708Z,100036.16
2019-04-03T21:54:58.387Z,100033.98
2019-04-03T21:57:26.613Z,100030.97
2019-04-03T21:59:55.081Z,100029.70
2019-04-03T22:02:23.547Z,100027.50
2019-04-03T22:04:54.025Z,100027.97
2019-04-03T22:07:22.314Z,100021.91
2019-04-03T22:09:50.794Z,100028.84
2019-04-03T22:12:19.277Z,100021.48
2019-04-03T22:14:47.735Z,100032.78
2019-04-03T22:17:16.185Z,100026.30
2019-04-03T22:19:44.687Z,100022.39
2019-04-03T22:22:13.140Z,99992.13
2019-04-03T22:24:41.603Z,100013.72
2019-04-03T22:27:11.619Z,100006.83
2019-04-03T22:29:40.291Z,100007.23
2019-04-03T22:32:08.765Z,100011.58
2019-04-03T22:34:37.277Z,100008.14
2019-04-03T22:37:05.756Z,100006.41
2019-04-03T22:39:34.213Z,100002.09
2019-04-03T22:42:02.717Z,99997.33
2019-04-03T22:44:31.194Z,100001.67
2019-04-03T22:46:59.644Z,99996.05
2019-04-03T22:49:28.139Z,100002.99
2019-04-03T22:51:56.602Z,99999.53
2019-04-03T22:54:25.061Z,99999.97
2019-04-03T22:56:53.544Z,99998.22
2019-04-03T22:59:24.230Z,99990.89
2019-04-03T23:01:52.955Z,99987.84
2019-04-03T23:04:21.461Z,99990.02
2019-04-03T23:06:50.227Z,99987.41
2019-04-03T23:09:18.743Z,99985.25
2019-04-03T23:11:47.265Z,99986.13
2019-04-03T23:14:15.727Z,99993.50
2019-04-03T23:16:44.175Z,99989.60
2019-04-03T23:19:12.673Z,100001.72
2019-04-03T23:21:41.134Z,100000.84
2019-04-03T23:24:09.592Z,99994.77
2019-04-03T23:26:38.070Z,99997.37
2019-04-03T23:29:06.523Z,99993.44
2019-04-03T23:31:34.974Z,99995.16
2019-04-03T23:34:03.473Z,99986.07
2019-04-03T23:36:32.316Z,99985.19
2019-04-03T23:39:00.792Z,99984.72
2019-04-03T23:41:29.291Z,99981.27
2019-04-03T23:43:57.772Z,99976.03
2019-04-03T23:46:26.232Z,99976.05
2019-04-03T23:48:54.713Z,99976.91
2019-04-03T23:51:23.880Z,99970.82
2019-04-03T23:53:53.354Z,99966.06
2019-04-03T23:56:21.855Z,99965.61
2019-04-03T23:58:50.335Z,99969.52
